sensor_id;sensor_type;location;lat;lon;timestamp;P1;durP1;ratioP1;P2;durP2;ratioP2
7729;SDS011;3908;52.310;7.230;2023-02-13T00:02:02;28.03;;;13.73;;
7729;SDS011;3908;52.310;7.230;2023-02-13T00:04:49;28.70;;;14.23;;
7729;SDS011;3908;52.310;7.230;2023-02-13T00:07:36;29.17;;;14.83;;
7729;SDS011;3908;52.310;7.230;2023-02-13T00:10:23;30.53;;;13.90;;
7729;SDS011;3908;52.310;7.230;2023-02-13T00:13:12;32.13;;;15.53;;
7729;SDS011;3908;52.310;7.230;2023-02-13T00:16:00;33.43;;;14.20;;
7729;SDS011;3908;52.310;7.230;2023-02-13T00:18:49;33.37;;;15.37;;
7729;SDS011;3908;52.310;7.230;2023-02-13T00:21:36;27.30;;;15.00;;
7729;SDS011;3908;52.310;7.230;2023-02-13T00:24:23;29.23;;;14.77;;
7729;SDS011;3908;52.310;7.230;2023-02-13T00:27:10;29.80;;;14.33;;
7729;SDS011;3908;52.310;7.230;2023-02-13T00:29:58;30.40;;;13.43;;
7729;SDS011;3908;52.310;7.230;2023-02-13T00:32:46;29.00;;;14.47;;
7729;SDS011;3908;52.310;7.230;2023-02-13T00:35:33;31.80;;;15.73;;
7729;SDS011;3908;52.310;7.230;2023-02-13T00:38:20;29.23;;;14.73;;
7729;SDS011;3908;52.310;7.230;2023-02-13T00:41:07;33.73;;;15.63;;
7729;SDS011;3908;52.310;7.230;2023-02-13T00:43:55;28.93;;;14.80;;
7729;SDS011;3908;52.310;7.230;2023-02-13T00:46:43;32.97;;;16.23;;
7729;SDS011;3908;52.310;7.230;2023-02-13T00:49:30;33.23;;;16.53;;
7729;SDS011;3908;52.310;7.230;2023-02-13T00:52:19;30.97;;;15.23;;
7729;SDS011;3908;52.310;7.230;2023-02-13T00:55:06;30.20;;;15.50;;
7729;SDS011;3908;52.310;7.230;2023-02-13T00:57:54;31.43;;;15.47;;
7729;SDS011;3908;52.310;7.230;2023-02-13T01:00:41;35.03;;;16.30;;
7729;SDS011;3908;52.310;7.230;2023-02-13T01:03:29;33.33;;;16.37;;
7729;SDS011;3908;52.310;7.230;2023-02-13T01:06:16;34.27;;;15.77;;
7729;SDS011;3908;52.310;7.230;2023-02-13T01:09:06;35.17;;;14.97;;
7729;SDS011;3908;52.310;7.230;2023-02-13T01:11:53;27.10;;;13.70;;
7729;SDS011;3908;52.310;7.230;2023-02-13T01:14:40;32.43;;;14.33;;
7729;SDS011;3908;52.310;7.230;2023-02-13T01:17:27;29.30;;;13.67;;
7729;SDS011;3908;52.310;7.230;2023-02-13T01:20:15;28.50;;;15.47;;
7729;SDS011;3908;52.310;7.230;2023-02-13T01:23:03;34.50;;;15.43;;
7729;SDS011;3908;52.310;7.230;2023-02-13T01:25:50;35.57;;;15.90;;
7729;SDS011;3908;52.310;7.230;2023-02-13T01:28:37;32.07;;;15.10;;
7729;SDS011;3908;52.310;7.230;2023-02-13T01:31:24;30.87;;;16.17;;
7729;SDS011;3908;52.310;7.230;2023-02-13T01:34:11;34.73;;;15.73;;
7729;SDS011;3908;52.310;7.230;2023-02-13T01:37:00;32.17;;;16.60;;
7729;SDS011;3908;52.310;7.230;2023-02-13T01:39:47;32.87;;;15.90;;
7729;SDS011;3908;52.310;7.230;2023-02-13T01:42:35;31.80;;;15.40;;
7729;SDS011;3908;52.310;7.230;2023-02-13T01:45:22;29.77;;;15.30;;
7729;SDS011;3908;52.310;7.230;2023-02-13T01:48:11;32.50;;;15.73;;
7729;SDS011;3908;52.310;7.230;2023-02-13T01:51:03;31.33;;;15.07;;
7729;SDS011;3908;52.310;7.230;2023-02-13T01:53:56;34.70;;;15.60;;
7729;SDS011;3908;52.310;7.230;2023-02-13T01:56:47;30.50;;;15.57;;
7729;SDS011;3908;52.310;7.230;2023-02-13T01:59:36;30.20;;;15.17;;
7729;SDS011;3908;52.310;7.230;2023-02-13T02:02:28;36.50;;;17.03;;
7729;SDS011;3908;52.310;7.230;2023-02-13T02:05:20;37.93;;;17.87;;
7729;SDS011;3908;52.310;7.230;2023-02-13T02:08:12;34.00;;;16.10;;
7729;SDS011;3908;52.310;7.230;2023-02-13T02:11:06;32.53;;;15.77;;
7729;SDS011;3908;52.310;7.230;2023-02-13T02:13:59;34.03;;;17.27;;
7729;SDS011;3908;52.310;7.230;2023-02-13T02:16:48;32.37;;;15.87;;
7729;SDS011;3908;52.310;7.230;2023-02-13T02:19:37;28.53;;;14.87;;
7729;SDS011;3908;52.310;7.230;2023-02-13T02:22:33;33.17;;;16.60;;
7729;SDS011;3908;52.310;7.230;2023-02-13T02:25:41;35.27;;;16.70;;
7729;SDS011;3908;52.310;7.230;2023-02-13T02:28:51;30.40;;;16.10;;
7729;SDS011;3908;52.310;7.230;2023-02-13T02:32:03;34.40;;;15.73;;
7729;SDS011;3908;52.310;7.230;2023-02-13T02:35:22;32.07;;;16.33;;
7729;SDS011;3908;52.310;7.230;2023-02-13T02:38:18;31.40;;;16.17;;
7729;SDS011;3908;52.310;7.230;2023-02-13T02:46:28;33.67;;;17.40;;
7729;SDS011;3908;52.310;7.230;2023-02-13T02:49:28;27.17;;;15.57;;
7729;SDS011;3908;52.310;7.230;2023-02-13T02:52:41;34.20;;;15.43;;
7729;SDS011;3908;52.310;7.230;2023-02-13T02:55:36;30.60;;;15.23;;
7729;SDS011;3908;52.310;7.230;2023-02-13T02:58:30;31.03;;;15.70;;
7729;SDS011;3908;52.310;7.230;2023-02-13T03:01:40;32.00;;;15.37;;
7729;SDS011;3908;52.310;7.230;2023-02-13T03:04:45;32.07;;;15.73;;
7729;SDS011;3908;52.310;7.230;2023-02-13T03:07:55;27.23;;;16.23;;
7729;SDS011;3908;52.310;7.230;2023-02-13T03:10:42;29.40;;;15.07;;
7729;SDS011;3908;52.310;7.230;2023-02-13T03:13:47;32.73;;;15.63;;
7729;SDS011;3908;52.310;7.230;2023-02-13T03:16:43;29.13;;;14.57;;
7729;SDS011;3908;52.310;7.230;2023-02-13T03:19:57;27.33;;;15.27;;
7729;SDS011;3908;52.310;7.230;2023-02-13T03:23:13;34.93;;;16.67;;
7729;SDS011;3908;52.310;7.230;2023-02-13T03:29:34;28.60;;;15.43;;
7729;SDS011;3908;52.310;7.230;2023-02-13T03:32:48;28.60;;;15.80;;
7729;SDS011;3908;52.310;7.230;2023-02-13T03:35:43;31.30;;;15.33;;
7729;SDS011;3908;52.310;7.230;2023-02-13T03:38:56;29.93;;;15.10;;
7729;SDS011;3908;52.310;7.230;2023-02-13T03:41:50;31.07;;;16.97;;
7729;SDS011;3908;52.310;7.230;2023-02-13T03:44:45;30.33;;;15.73;;
7729;SDS011;3908;52.310;7.230;2023-02-13T03:47:56;29.50;;;15.53;;
7729;SDS011;3908;52.310;7.230;2023-02-13T03:51:06;27.90;;;14.93;;
7729;SDS011;3908;52.310;7.230;2023-02-13T03:53:57;34.43;;;16.50;;
7729;SDS011;3908;52.310;7.230;2023-02-13T03:56:48;27.43;;;16.10;;
7729;SDS011;3908;52.310;7.230;2023-02-13T03:59:54;28.07;;;15.23;;
7729;SDS011;3908;52.310;7.230;2023-02-13T04:02:47;29.83;;;15.17;;
7729;SDS011;3908;52.310;7.230;2023-02-13T04:05:38;27.37;;;14.50;;
7729;SDS011;3908;52.310;7.230;2023-02-13T04:08:29;31.20;;;15.53;;
7729;SDS011;3908;52.310;7.230;2023-02-13T04:11:19;25.27;;;14.57;;
7729;SDS011;3908;52.310;7.230;2023-02-13T04:14:12;33.27;;;14.23;;
7729;SDS011;3908;52.310;7.230;2023-02-13T04:17:04;28.23;;;16.67;;
7729;SDS011;3908;52.310;7.230;2023-02-13T04:19:53;25.73;;;15.40;;
7729;SDS011;3908;52.310;7.230;2023-02-13T04:22:41;31.50;;;15.97;;
7729;SDS011;3908;52.310;7.230;2023-02-13T04:25:29;24.07;;;14.17;;
7729;SDS011;3908;52.310;7.230;2023-02-13T04:28:17;26.17;;;14.17;;
7729;SDS011;3908;52.310;7.230;2023-02-13T04:31:06;25.90;;;13.73;;
7729;SDS011;3908;52.310;7.230;2023-02-13T04:33:53;25.10;;;15.03;;
7729;SDS011;3908;52.310;7.230;2023-02-13T04:36:40;22.50;;;13.17;;
7729;SDS011;3908;52.310;7.230;2023-02-13T04:39:27;26.70;;;14.37;;
7729;SDS011;3908;52.310;7.230;2023-02-13T04:42:15;28.37;;;14.10;;
7729;SDS011;3908;52.310;7.230;2023-02-13T04:45:03;29.43;;;15.50;;
7729;SDS011;3908;52.310;7.230;2023-02-13T04:47:51;26.57;;;14.93;;
7729;SDS011;3908;52.310;7.230;2023-02-13T04:50:38;26.50;;;14.07;;
7729;SDS011;3908;52.310;7.230;2023-02-13T04:53:25;28.77;;;14.30;;
7729;SDS011;3908;52.310;7.230;2023-02-13T04:56:12;27.77;;;15.03;;
7729;SDS011;3908;52.310;7.230;2023-02-13T04:58:59;30.50;;;15.53;;
7729;SDS011;3908;52.310;7.230;2023-02-13T05:01:48;26.53;;;15.57;;
7729;SDS011;3908;52.310;7.230;2023-02-13T05:04:35;27.43;;;14.67;;
7729;SDS011;3908;52.310;7.230;2023-02-13T05:07:22;30.80;;;15.77;;
7729;SDS011;3908;52.310;7.230;2023-02-13T05:10:09;26.17;;;14.63;;
7729;SDS011;3908;52.310;7.230;2023-02-13T05:12:57;23.07;;;14.27;;
7729;SDS011;3908;52.310;7.230;2023-02-13T05:15:47;26.57;;;14.43;;
7729;SDS011;3908;52.310;7.230;2023-02-13T05:18:38;28.17;;;15.37;;
7729;SDS011;3908;52.310;7.230;2023-02-13T05:21:25;31.07;;;15.93;;
7729;SDS011;3908;52.310;7.230;2023-02-13T05:24:29;28.47;;;16.50;;
7729;SDS011;3908;52.310;7.230;2023-02-13T05:27:16;31.30;;;17.77;;
7729;SDS011;3908;52.310;7.230;2023-02-13T05:30:04;30.63;;;16.77;;
7729;SDS011;3908;52.310;7.230;2023-02-13T05:32:51;30.03;;;16.83;;
7729;SDS011;3908;52.310;7.230;2023-02-13T05:35:40;30.97;;;17.13;;
7729;SDS011;3908;52.310;7.230;2023-02-13T05:38:27;29.63;;;16.27;;
7729;SDS011;3908;52.310;7.230;2023-02-13T05:41:14;28.60;;;16.43;;
7729;SDS011;3908;52.310;7.230;2023-02-13T05:44:01;29.27;;;15.90;;
7729;SDS011;3908;52.310;7.230;2023-02-13T05:46:49;31.90;;;16.73;;
7729;SDS011;3908;52.310;7.230;2023-02-13T05:49:37;30.57;;;17.63;;
7729;SDS011;3908;52.310;7.230;2023-02-13T05:52:25;30.07;;;17.33;;
7729;SDS011;3908;52.310;7.230;2023-02-13T05:55:13;27.83;;;16.57;;
7729;SDS011;3908;52.310;7.230;2023-02-13T05:58:00;30.30;;;17.07;;
7729;SDS011;3908;52.310;7.230;2023-02-13T06:00:47;30.97;;;16.60;;
7729;SDS011;3908;52.310;7.230;2023-02-13T06:03:35;29.60;;;16.10;;
7729;SDS011;3908;52.310;7.230;2023-02-13T06:06:22;29.37;;;16.37;;
7729;SDS011;3908;52.310;7.230;2023-02-13T06:09:11;25.27;;;15.07;;
7729;SDS011;3908;52.310;7.230;2023-02-13T06:11:58;29.93;;;16.07;;
7729;SDS011;3908;52.310;7.230;2023-02-13T06:14:45;26.80;;;15.03;;
7729;SDS011;3908;52.310;7.230;2023-02-13T06:17:32;27.23;;;16.07;;
7729;SDS011;3908;52.310;7.230;2023-02-13T06:20:19;30.70;;;17.03;;
7729;SDS011;3908;52.310;7.230;2023-02-13T06:23:06;29.07;;;16.80;;
7729;SDS011;3908;52.310;7.230;2023-02-13T06:25:55;30.70;;;17.07;;
7729;SDS011;3908;52.310;7.230;2023-02-13T06:28:42;36.63;;;17.90;;
7729;SDS011;3908;52.310;7.230;2023-02-13T06:31:29;33.27;;;17.93;;
7729;SDS011;3908;52.310;7.230;2023-02-13T06:34:15;32.30;;;16.80;;
7729;SDS011;3908;52.310;7.230;2023-02-13T06:37:02;30.47;;;18.13;;
7729;SDS011;3908;52.310;7.230;2023-02-13T06:39:49;32.13;;;18.93;;
7729;SDS011;3908;52.310;7.230;2023-02-13T06:42:38;34.97;;;18.13;;
7729;SDS011;3908;52.310;7.230;2023-02-13T06:45:25;35.13;;;18.73;;
7729;SDS011;3908;52.310;7.230;2023-02-13T06:48:12;34.77;;;19.17;;
7729;SDS011;3908;52.310;7.230;2023-02-13T06:50:59;35.63;;;17.70;;
7729;SDS011;3908;52.310;7.230;2023-02-13T06:53:47;29.00;;;16.90;;
7729;SDS011;3908;52.310;7.230;2023-02-13T06:56:34;30.80;;;17.70;;
7729;SDS011;3908;52.310;7.230;2023-02-13T06:59:22;31.63;;;17.80;;
7729;SDS011;3908;52.310;7.230;2023-02-13T07:02:09;31.97;;;18.03;;
7729;SDS011;3908;52.310;7.230;2023-02-13T07:04:56;37.80;;;19.87;;
7729;SDS011;3908;52.310;7.230;2023-02-13T07:07:43;32.63;;;18.13;;
7729;SDS011;3908;52.310;7.230;2023-02-13T07:10:31;33.50;;;18.20;;
7729;SDS011;3908;52.310;7.230;2023-02-13T07:13:18;36.13;;;18.07;;
7729;SDS011;3908;52.310;7.230;2023-02-13T07:16:06;33.60;;;18.83;;
7729;SDS011;3908;52.310;7.230;2023-02-13T07:18:53;35.70;;;19.10;;
7729;SDS011;3908;52.310;7.230;2023-02-13T07:21:40;31.93;;;16.93;;
7729;SDS011;3908;52.310;7.230;2023-02-13T07:24:27;38.20;;;18.30;;
7729;SDS011;3908;52.310;7.230;2023-02-13T07:27:14;31.53;;;17.10;;
7729;SDS011;3908;52.310;7.230;2023-02-13T07:30:01;29.87;;;18.20;;
7729;SDS011;3908;52.310;7.230;2023-02-13T07:32:49;35.10;;;19.10;;
7729;SDS011;3908;52.310;7.230;2023-02-13T07:35:36;35.17;;;18.67;;
7729;SDS011;3908;52.310;7.230;2023-02-13T07:38:25;38.40;;;20.20;;
7729;SDS011;3908;52.310;7.230;2023-02-13T07:41:12;33.43;;;18.03;;
7729;SDS011;3908;52.310;7.230;2023-02-13T07:43:59;33.43;;;17.80;;
7729;SDS011;3908;52.310;7.230;2023-02-13T07:46:46;33.37;;;18.13;;
7729;SDS011;3908;52.310;7.230;2023-02-13T07:49:34;31.13;;;16.87;;
7729;SDS011;3908;52.310;7.230;2023-02-13T07:52:21;31.23;;;18.70;;
7729;SDS011;3908;52.310;7.230;2023-02-13T07:55:08;31.33;;;18.63;;
7729;SDS011;3908;52.310;7.230;2023-02-13T07:57:58;34.63;;;18.83;;
7729;SDS011;3908;52.310;7.230;2023-02-13T08:00:46;31.33;;;18.07;;
7729;SDS011;3908;52.310;7.230;2023-02-13T08:03:33;32.30;;;17.67;;
7729;SDS011;3908;52.310;7.230;2023-02-13T08:06:21;29.43;;;17.10;;
7729;SDS011;3908;52.310;7.230;2023-02-13T08:09:10;31.87;;;17.60;;
7729;SDS011;3908;52.310;7.230;2023-02-13T08:12:21;28.87;;;16.50;;
7729;SDS011;3908;52.310;7.230;2023-02-13T08:15:09;31.53;;;17.43;;
7729;SDS011;3908;52.310;7.230;2023-02-13T08:17:57;36.40;;;17.77;;
7729;SDS011;3908;52.310;7.230;2023-02-13T08:20:44;29.43;;;16.47;;
7729;SDS011;3908;52.310;7.230;2023-02-13T08:23:33;31.40;;;17.43;;
7729;SDS011;3908;52.310;7.230;2023-02-13T08:26:19;32.90;;;17.77;;
7729;SDS011;3908;52.310;7.230;2023-02-13T08:29:06;32.03;;;17.00;;
7729;SDS011;3908;52.310;7.230;2023-02-13T08:31:54;33.27;;;17.73;;
7729;SDS011;3908;52.310;7.230;2023-02-13T08:34:41;31.57;;;16.03;;
7729;SDS011;3908;52.310;7.230;2023-02-13T08:37:28;33.00;;;16.70;;
7729;SDS011;3908;52.310;7.230;2023-02-13T08:40:17;34.33;;;18.60;;
7729;SDS011;3908;52.310;7.230;2023-02-13T08:43:05;32.93;;;18.17;;
7729;SDS011;3908;52.310;7.230;2023-02-13T08:45:52;31.37;;;16.90;;
7729;SDS011;3908;52.310;7.230;2023-02-13T08:48:39;32.03;;;17.63;;
7729;SDS011;3908;52.310;7.230;2023-02-13T08:51:26;32.73;;;17.03;;
7729;SDS011;3908;52.310;7.230;2023-02-13T08:54:13;30.80;;;15.70;;
7729;SDS011;3908;52.310;7.230;2023-02-13T08:57:02;30.17;;;16.57;;
7729;SDS011;3908;52.310;7.230;2023-02-13T08:59:49;30.63;;;15.70;;
7729;SDS011;3908;52.310;7.230;2023-02-13T09:02:36;30.77;;;15.87;;
7729;SDS011;3908;52.310;7.230;2023-02-13T09:05:23;30.53;;;17.07;;
7729;SDS011;3908;52.310;7.230;2023-02-13T09:08:10;28.97;;;15.23;;
7729;SDS011;3908;52.310;7.230;2023-02-13T09:10:58;29.40;;;15.97;;
7729;SDS011;3908;52.310;7.230;2023-02-13T09:13:48;24.73;;;14.23;;
7729;SDS011;3908;52.310;7.230;2023-02-13T09:16:38;30.10;;;15.43;;
7729;SDS011;3908;52.310;7.230;2023-02-13T09:19:25;30.17;;;15.50;;
7729;SDS011;3908;52.310;7.230;2023-02-13T09:22:12;26.30;;;15.10;;
7729;SDS011;3908;52.310;7.230;2023-02-13T09:25:01;26.53;;;14.10;;
7729;SDS011;3908;52.310;7.230;2023-02-13T09:27:48;26.53;;;15.00;;
7729;SDS011;3908;52.310;7.230;2023-02-13T09:30:37;26.70;;;14.67;;
7729;SDS011;3908;52.310;7.230;2023-02-13T09:33:24;26.57;;;13.90;;
7729;SDS011;3908;52.310;7.230;2023-02-13T09:36:12;20.93;;;12.73;;
7729;SDS011;3908;52.310;7.230;2023-02-13T09:39:00;27.10;;;14.10;;
7729;SDS011;3908;52.310;7.230;2023-02-13T09:41:48;27.53;;;15.00;;
7729;SDS011;3908;52.310;7.230;2023-02-13T09:44:38;29.87;;;15.67;;
7729;SDS011;3908;52.310;7.230;2023-02-13T09:47:30;25.13;;;14.43;;
7729;SDS011;3908;52.310;7.230;2023-02-13T09:50:20;25.80;;;14.30;;
7729;SDS011;3908;52.310;7.230;2023-02-13T09:53:10;26.90;;;15.37;;
7729;SDS011;3908;52.310;7.230;2023-02-13T09:56:06;24.07;;;14.17;;
7729;SDS011;3908;52.310;7.230;2023-02-13T09:59:00;22.90;;;14.07;;
7729;SDS011;3908;52.310;7.230;2023-02-13T10:01:51;25.50;;;14.70;;
7729;SDS011;3908;52.310;7.230;2023-02-13T10:04:45;26.43;;;15.40;;
7729;SDS011;3908;52.310;7.230;2023-02-13T10:07:38;25.07;;;14.70;;
7729;SDS011;3908;52.310;7.230;2023-02-13T10:10:37;24.77;;;14.47;;
7729;SDS011;3908;52.310;7.230;2023-02-13T10:13:47;22.27;;;14.33;;
7729;SDS011;3908;52.310;7.230;2023-02-13T10:16:44;23.13;;;13.73;;
7729;SDS011;3908;52.310;7.230;2023-02-13T10:19:37;23.60;;;14.47;;
7729;SDS011;3908;52.310;7.230;2023-02-13T10:22:30;25.77;;;14.20;;
7729;SDS011;3908;52.310;7.230;2023-02-13T10:25:21;25.47;;;14.93;;
7729;SDS011;3908;52.310;7.230;2023-02-13T10:28:11;28.67;;;15.47;;
7729;SDS011;3908;52.310;7.230;2023-02-13T10:31:04;28.23;;;14.83;;
7729;SDS011;3908;52.310;7.230;2023-02-13T10:33:54;24.47;;;14.40;;
7729;SDS011;3908;52.310;7.230;2023-02-13T10:36:48;24.57;;;14.07;;
7729;SDS011;3908;52.310;7.230;2023-02-13T10:39:36;24.63;;;14.47;;
7729;SDS011;3908;52.310;7.230;2023-02-13T10:42:26;24.50;;;15.33;;
7729;SDS011;3908;52.310;7.230;2023-02-13T10:45:26;26.23;;;15.37;;
7729;SDS011;3908;52.310;7.230;2023-02-13T10:48:34;27.57;;;16.50;;
7729;SDS011;3908;52.310;7.230;2023-02-13T10:51:32;26.13;;;16.30;;
7729;SDS011;3908;52.310;7.230;2023-02-13T10:54:27;26.50;;;16.33;;
7729;SDS011;3908;52.310;7.230;2023-02-13T10:57:33;31.40;;;16.93;;
7729;SDS011;3908;52.310;7.230;2023-02-13T11:00:40;31.33;;;17.30;;
7729;SDS011;3908;52.310;7.230;2023-02-13T11:03:33;30.10;;;18.57;;
7729;SDS011;3908;52.310;7.230;2023-02-13T11:06:20;29.97;;;17.33;;
7729;SDS011;3908;52.310;7.230;2023-02-13T11:09:07;29.07;;;17.23;;
7729;SDS011;3908;52.310;7.230;2023-02-13T11:11:57;29.63;;;17.37;;
7729;SDS011;3908;52.310;7.230;2023-02-13T11:14:56;28.90;;;17.43;;
7729;SDS011;3908;52.310;7.230;2023-02-13T11:17:44;29.73;;;17.77;;
7729;SDS011;3908;52.310;7.230;2023-02-13T11:20:32;28.37;;;17.53;;
7729;SDS011;3908;52.310;7.230;2023-02-13T11:23:26;30.50;;;18.23;;
7729;SDS011;3908;52.310;7.230;2023-02-13T11:26:30;29.93;;;17.67;;
7729;SDS011;3908;52.310;7.230;2023-02-13T11:29:21;28.70;;;18.40;;
7729;SDS011;3908;52.310;7.230;2023-02-13T11:32:21;31.13;;;17.50;;
7729;SDS011;3908;52.310;7.230;2023-02-13T11:35:24;29.30;;;18.07;;
7729;SDS011;3908;52.310;7.230;2023-02-13T11:38:19;26.30;;;16.37;;
7729;SDS011;3908;52.310;7.230;2023-02-13T11:41:09;30.33;;;19.27;;
7729;SDS011;3908;52.310;7.230;2023-02-13T11:44:01;31.83;;;18.40;;
7729;SDS011;3908;52.310;7.230;2023-02-13T11:46:50;31.13;;;17.53;;
7729;SDS011;3908;52.310;7.230;2023-02-13T11:49:43;29.00;;;17.70;;
7729;SDS011;3908;52.310;7.230;2023-02-13T11:52:32;30.73;;;17.33;;
7729;SDS011;3908;52.310;7.230;2023-02-13T11:55:25;26.30;;;16.70;;
7729;SDS011;3908;52.310;7.230;2023-02-13T11:58:22;29.03;;;16.90;;
7729;SDS011;3908;52.310;7.230;2023-02-13T12:01:25;30.07;;;17.90;;
7729;SDS011;3908;52.310;7.230;2023-02-13T12:04:14;28.20;;;16.97;;
7729;SDS011;3908;52.310;7.230;2023-02-13T12:07:04;27.33;;;17.00;;
7729;SDS011;3908;52.310;7.230;2023-02-13T12:10:01;25.80;;;16.73;;
7729;SDS011;3908;52.310;7.230;2023-02-13T12:12:55;25.30;;;16.87;;
7729;SDS011;3908;52.310;7.230;2023-02-13T12:15:44;27.23;;;16.27;;
7729;SDS011;3908;52.310;7.230;2023-02-13T12:18:37;27.17;;;17.97;;
7729;SDS011;3908;52.310;7.230;2023-02-13T12:21:31;27.33;;;16.80;;
7729;SDS011;3908;52.310;7.230;2023-02-13T12:24:40;24.70;;;16.77;;
7729;SDS011;3908;52.310;7.230;2023-02-13T12:27:43;26.30;;;16.70;;
7729;SDS011;3908;52.310;7.230;2023-02-13T12:30:49;23.97;;;15.53;;
7729;SDS011;3908;52.310;7.230;2023-02-13T12:34:02;22.40;;;14.90;;
7729;SDS011;3908;52.310;7.230;2023-02-13T12:37:18;26.13;;;16.40;;
7729;SDS011;3908;52.310;7.230;2023-02-13T12:40:25;25.10;;;16.20;;
7729;SDS011;3908;52.310;7.230;2023-02-13T12:43:35;24.73;;;16.63;;
7729;SDS011;3908;52.310;7.230;2023-02-13T12:46:44;22.40;;;15.63;;
7729;SDS011;3908;52.310;7.230;2023-02-13T12:49:45;24.20;;;15.10;;
7729;SDS011;3908;52.310;7.230;2023-02-13T12:52:56;24.77;;;15.40;;
7729;SDS011;3908;52.310;7.230;2023-02-13T12:56:08;24.00;;;15.07;;
7729;SDS011;3908;52.310;7.230;2023-02-13T12:59:14;22.97;;;15.50;;
7729;SDS011;3908;52.310;7.230;2023-02-13T13:02:22;24.37;;;15.87;;
7729;SDS011;3908;52.310;7.230;2023-02-13T13:05:44;22.63;;;14.30;;
7729;SDS011;3908;52.310;7.230;2023-02-13T13:08:55;24.87;;;15.93;;
7729;SDS011;3908;52.310;7.230;2023-02-13T13:15:18;24.30;;;15.33;;
7729;SDS011;3908;52.310;7.230;2023-02-13T13:18:17;24.40;;;15.23;;
7729;SDS011;3908;52.310;7.230;2023-02-13T13:21:20;25.57;;;15.77;;
7729;SDS011;3908;52.310;7.230;2023-02-13T13:24:22;23.73;;;14.63;;
7729;SDS011;3908;52.310;7.230;2023-02-13T13:27:17;22.77;;;14.80;;
7729;SDS011;3908;52.310;7.230;2023-02-13T13:30:13;21.93;;;14.13;;
7729;SDS011;3908;52.310;7.230;2023-02-13T13:33:04;21.73;;;14.43;;
7729;SDS011;3908;52.310;7.230;2023-02-13T13:36:03;21.93;;;15.13;;
7729;SDS011;3908;52.310;7.230;2023-02-13T13:38:56;20.93;;;13.53;;
7729;SDS011;3908;52.310;7.230;2023-02-13T13:41:50;20.27;;;13.43;;
7729;SDS011;3908;52.310;7.230;2023-02-13T13:44:49;20.43;;;12.33;;
7729;SDS011;3908;52.310;7.230;2023-02-13T13:47:50;19.87;;;12.97;;
7729;SDS011;3908;52.310;7.230;2023-02-13T13:50:49;20.97;;;13.27;;
7729;SDS011;3908;52.310;7.230;2023-02-13T13:53:37;22.97;;;14.60;;
7729;SDS011;3908;52.310;7.230;2023-02-13T13:57:06;20.27;;;13.47;;
7729;SDS011;3908;52.310;7.230;2023-02-13T14:03:23;19.03;;;12.57;;
7729;SDS011;3908;52.310;7.230;2023-02-13T14:06:21;20.50;;;13.07;;
7729;SDS011;3908;52.310;7.230;2023-02-13T14:12:43;15.80;;;11.17;;
7729;SDS011;3908;52.310;7.230;2023-02-13T14:15:49;17.80;;;12.00;;
7729;SDS011;3908;52.310;7.230;2023-02-13T14:18:44;15.33;;;10.93;;
7729;SDS011;3908;52.310;7.230;2023-02-13T14:21:32;16.20;;;11.07;;
7729;SDS011;3908;52.310;7.230;2023-02-13T14:24:19;15.90;;;11.17;;
7729;SDS011;3908;52.310;7.230;2023-02-13T14:27:15;14.87;;;10.17;;
7729;SDS011;3908;52.310;7.230;2023-02-13T14:30:21;15.53;;;10.43;;
7729;SDS011;3908;52.310;7.230;2023-02-13T14:33:20;15.13;;;10.07;;
7729;SDS011;3908;52.310;7.230;2023-02-13T14:36:19;12.90;;;9.50;;
7729;SDS011;3908;52.310;7.230;2023-02-13T14:39:16;13.90;;;8.97;;
7729;SDS011;3908;52.310;7.230;2023-02-13T14:42:20;16.50;;;9.93;;
7729;SDS011;3908;52.310;7.230;2023-02-13T14:45:11;13.93;;;9.77;;
7729;SDS011;3908;52.310;7.230;2023-02-13T14:48:03;14.90;;;10.00;;
7729;SDS011;3908;52.310;7.230;2023-02-13T14:50:53;14.00;;;9.60;;
7729;SDS011;3908;52.310;7.230;2023-02-13T14:53:47;15.93;;;9.73;;
7729;SDS011;3908;52.310;7.230;2023-02-13T14:56:37;12.40;;;8.97;;
7729;SDS011;3908;52.310;7.230;2023-02-13T14:59:25;13.53;;;9.80;;
7729;SDS011;3908;52.310;7.230;2023-02-13T15:02:20;12.77;;;9.43;;
7729;SDS011;3908;52.310;7.230;2023-02-13T15:05:11;13.30;;;9.77;;
7729;SDS011;3908;52.310;7.230;2023-02-13T15:08:03;14.57;;;9.70;;
7729;SDS011;3908;52.310;7.230;2023-02-13T15:10:56;13.30;;;9.23;;
7729;SDS011;3908;52.310;7.230;2023-02-13T15:13:43;14.10;;;10.00;;
7729;SDS011;3908;52.310;7.230;2023-02-13T15:16:30;12.87;;;8.83;;
7729;SDS011;3908;52.310;7.230;2023-02-13T15:19:18;13.00;;;9.83;;
7729;SDS011;3908;52.310;7.230;2023-02-13T15:22:06;14.80;;;9.43;;
7729;SDS011;3908;52.310;7.230;2023-02-13T15:25:03;12.73;;;8.97;;
7729;SDS011;3908;52.310;7.230;2023-02-13T15:27:54;12.90;;;9.07;;
7729;SDS011;3908;52.310;7.230;2023-02-13T15:30:51;13.23;;;9.60;;
7729;SDS011;3908;52.310;7.230;2023-02-13T15:33:42;13.07;;;8.73;;
7729;SDS011;3908;52.310;7.230;2023-02-13T15:36:33;15.00;;;8.90;;
7729;SDS011;3908;52.310;7.230;2023-02-13T15:39:23;12.83;;;8.77;;
7729;SDS011;3908;52.310;7.230;2023-02-13T15:42:11;14.20;;;9.77;;
7729;SDS011;3908;52.310;7.230;2023-02-13T15:45:01;13.43;;;9.17;;
7729;SDS011;3908;52.310;7.230;2023-02-13T15:47:48;15.73;;;9.50;;
7729;SDS011;3908;52.310;7.230;2023-02-13T15:50:36;13.03;;;8.77;;
7729;SDS011;3908;52.310;7.230;2023-02-13T15:53:28;13.50;;;9.63;;
7729;SDS011;3908;52.310;7.230;2023-02-13T15:56:15;13.70;;;9.13;;
7729;SDS011;3908;52.310;7.230;2023-02-13T15:59:02;13.70;;;9.00;;
7729;SDS011;3908;52.310;7.230;2023-02-13T16:01:51;15.83;;;10.20;;
7729;SDS011;3908;52.310;7.230;2023-02-13T16:04:39;15.80;;;10.03;;
7729;SDS011;3908;52.310;7.230;2023-02-13T16:07:27;16.90;;;10.40;;
7729;SDS011;3908;52.310;7.230;2023-02-13T16:10:15;16.53;;;10.33;;
7729;SDS011;3908;52.310;7.230;2023-02-13T16:13:04;17.30;;;11.20;;
7729;SDS011;3908;52.310;7.230;2023-02-13T16:15:53;16.40;;;10.80;;
7729;SDS011;3908;52.310;7.230;2023-02-13T16:18:41;16.27;;;9.70;;
7729;SDS011;3908;52.310;7.230;2023-02-13T16:21:28;15.67;;;9.80;;
7729;SDS011;3908;52.310;7.230;2023-02-13T16:24:19;16.87;;;10.20;;
7729;SDS011;3908;52.310;7.230;2023-02-13T16:27:11;16.17;;;10.00;;
7729;SDS011;3908;52.310;7.230;2023-02-13T16:30:15;16.07;;;10.40;;
7729;SDS011;3908;52.310;7.230;2023-02-13T16:33:18;15.30;;;9.90;;
7729;SDS011;3908;52.310;7.230;2023-02-13T16:39:17;16.97;;;9.77;;
7729;SDS011;3908;52.310;7.230;2023-02-13T16:42:11;17.00;;;10.53;;
7729;SDS011;3908;52.310;7.230;2023-02-13T16:45:20;18.00;;;10.03;;
7729;SDS011;3908;52.310;7.230;2023-02-13T16:48:08;17.27;;;9.97;;
7729;SDS011;3908;52.310;7.230;2023-02-13T16:50:59;15.63;;;10.00;;
7729;SDS011;3908;52.310;7.230;2023-02-13T16:53:47;15.50;;;10.57;;
7729;SDS011;3908;52.310;7.230;2023-02-13T16:56:47;19.43;;;9.73;;
7729;SDS011;3908;52.310;7.230;2023-02-13T16:59:41;16.53;;;9.70;;
7729;SDS011;3908;52.310;7.230;2023-02-13T17:02:37;15.80;;;9.37;;
7729;SDS011;3908;52.310;7.230;2023-02-13T17:05:26;19.00;;;10.97;;
7729;SDS011;3908;52.310;7.230;2023-02-13T17:08:13;16.77;;;10.40;;
7729;SDS011;3908;52.310;7.230;2023-02-13T17:11:03;17.30;;;10.53;;
7729;SDS011;3908;52.310;7.230;2023-02-13T17:13:51;19.83;;;11.20;;
7729;SDS011;3908;52.310;7.230;2023-02-13T17:16:38;17.17;;;9.83;;
7729;SDS011;3908;52.310;7.230;2023-02-13T17:19:26;18.10;;;10.50;;
7729;SDS011;3908;52.310;7.230;2023-02-13T17:22:17;20.17;;;10.43;;
7729;SDS011;3908;52.310;7.230;2023-02-13T17:25:15;19.63;;;10.73;;
7729;SDS011;3908;52.310;7.230;2023-02-13T17:28:15;16.67;;;9.97;;
7729;SDS011;3908;52.310;7.230;2023-02-13T17:31:06;18.37;;;10.60;;
7729;SDS011;3908;52.310;7.230;2023-02-13T17:33:55;17.30;;;10.73;;
7729;SDS011;3908;52.310;7.230;2023-02-13T17:36:42;19.57;;;10.20;;
7729;SDS011;3908;52.310;7.230;2023-02-13T17:39:29;18.87;;;10.47;;
7729;SDS011;3908;52.310;7.230;2023-02-13T17:42:18;17.80;;;10.30;;